Time;durP1;ratioP1;P1;durP2;ratioP2;P2;SDS_P1;SDS_P2;PMS_P1;PMS_P2;Temp;Humidity;BMP_temperature;BMP_pressure;BME280_temperature;BME280_humidity;BME280_pressure;Samples;Min_cycle;Max_cycle;Signal;HPM_P1;HPM_P2
2021/06/16 00:01:32;;;;;;;15.65;2.47;;;;;;;18.55;55.38;101415.53;5094453;28;20055;-62
2021/06/16 00:03:58;;;;;;;12.60;2.05;;;;;;;18.57;55.52;101405.75;5098556;28;20459;-62
2021/06/16 00:06:26;;;;;;;9.85;2.35;;;;;;;18.55;55.84;101407.63;5093336;28;20040;-60
2021/06/16 00:08:54;;;;;;;7.75;1.70;;;;;;;18.50;55.43;101399.91;5091248;28;20051;-60
2021/06/16 00:11:20;;;;;;;6.47;2.17;;;;;;;18.47;55.43;101398.22;5089943;28;20044;-61
2021/06/16 00:13:47;;;;;;;8.45;2.08;;;;;;;18.42;55.76;101394.94;5087944;28;20449;-60
2021/06/16 00:16:13;;;;;;;9.98;2.08;;;;;;;18.40;55.64;101398.56;5091257;28;20043;-59
2021/06/16 00:18:40;;;;;;;7.43;1.60;;;;;;;18.40;55.79;101403.84;5088291;28;20036;-56
2021/06/16 00:21:06;;;;;;;8.82;1.58;;;;;;;18.38;56.13;101403.88;5089664;28;20058;-61
2021/06/16 00:23:33;;;;;;;9.38;1.73;;;;;;;18.36;56.35;101396.97;5092137;28;20081;-63
2021/06/16 00:26:01;;;;;;;6.75;1.55;;;;;;;18.32;55.59;101393.63;5090820;28;20050;-61
2021/06/16 00:28:27;;;;;;;8.77;1.70;;;;;;;18.27;55.64;101385.91;5093883;28;20493;-60
2021/06/16 00:30:53;;;;;;;8.30;2.30;;;;;;;18.24;55.77;101388.66;5090522;28;20051;-62
2021/06/16 00:33:20;;;;;;;5.68;1.70;;;;;;;18.28;56.06;101385.00;5089883;28;20048;-63
2021/06/16 00:35:46;;;;;;;8.55;1.77;;;;;;;18.33;56.22;101380.38;5087960;28;20043;-59
2021/06/16 00:38:13;;;;;;;8.57;2.13;;;;;;;18.24;56.38;101382.56;5093991;28;20528;-61
2021/06/16 00:40:39;;;;;;;8.80;2.10;;;;;;;18.23;56.35;101383.47;5089184;28;20051;-61
2021/06/16 00:43:07;;;;;;;9.90;1.77;;;;;;;18.21;56.36;101383.53;5094764;28;20475;-60
2021/06/16 00:45:34;;;;;;;7.78;1.90;;;;;;;18.14;56.67;101377.66;5089761;28;20048;-61
2021/06/16 00:48:00;;;;;;;7.15;1.75;;;;;;;18.11;56.70;101377.78;5092142;28;20153;-62
2021/06/16 00:50:30;;;;;;;9.07;2.17;;;;;;;18.13;56.65;101375.06;5092093;28;20416;-60
2021/06/16 00:52:56;;;;;;;7.38;2.08;;;;;;;18.11;56.45;101385.69;5090647;28;20035;-61
2021/06/16 00:55:23;;;;;;;7.25;2.20;;;;;;;18.06;56.63;101381.50;5091897;28;20051;-61
2021/06/16 00:57:50;;;;;;;12.93;3.13;;;;;;;18.03;56.22;101385.13;5091495;28;20047;-61
2021/06/16 01:00:23;;;;;;;8.55;2.13;;;;;;;17.95;56.78;101379.28;5088245;28;20460;-63
2021/06/16 01:02:53;;;;;;;8.73;1.88;;;;;;;17.94;56.91;101373.16;5094662;28;20523;-61
2021/06/16 01:05:21;;;;;;;7.55;2.22;;;;;;;17.99;56.68;101378.25;5088842;28;20048;-62
2021/06/16 01:07:54;;;;;;;8.15;1.92;;;;;;;17.98;56.46;101369.53;5089558;28;20048;-60
2021/06/16 01:10:23;;;;;;;9.57;1.85;;;;;;;17.96;56.83;101367.84;5088366;28;20044;-60
2021/06/16 01:13:00;;;;;;;4.70;1.80;;;;;;;17.86;56.97;101368.22;5086431;28;20176;-62
2021/06/16 01:15:33;;;;;;;9.13;1.63;;;;;;;17.91;56.92;101370.66;5089909;28;20051;-60
2021/06/16 01:18:02;;;;;;;6.78;1.45;;;;;;;17.89;57.04;101364.59;5090733;28;20044;-60
2021/06/16 01:20:33;;;;;;;7.57;2.10;;;;;;;17.84;57.32;101359.53;5089972;28;20397;-63
2021/06/16 01:23:16;;;;;;;13.32;2.60;;;;;;;17.81;57.54;101357.00;5079147;28;20621;-61
2021/06/16 01:25:48;;;;;;;6.97;2.65;;;;;;;17.82;57.48;101358.72;5089004;28;20043;-62
2021/06/16 01:28:19;;;;;;;10.43;2.33;;;;;;;17.86;57.33;101355.06;5097932;28;20048;-62
2021/06/16 01:30:48;;;;;;;5.60;1.80;;;;;;;17.86;57.28;101354.19;5087736;28;20044;-63
2021/06/16 01:33:16;;;;;;;11.40;1.98;;;;;;;17.84;57.41;101356.03;5089901;28;20051;-61
2021/06/16 01:35:46;;;;;;;8.35;2.30;;;;;;;17.78;57.59;101354.47;5089729;28;20425;-62
2021/06/16 01:38:14;;;;;;;7.43;2.13;;;;;;;17.79;57.55;101350.09;5089294;28;20052;-61
2021/06/16 01:40:42;;;;;;;8.95;2.70;;;;;;;17.82;57.64;101353.47;5091415;28;20078;-61
2021/06/16 01:43:10;;;;;;;8.75;2.15;;;;;;;17.83;57.42;101356.94;5087486;28;20041;-60
2021/06/16 01:45:39;;;;;;;8.00;2.17;;;;;;;17.82;57.48;101356.09;5086579;28;20063;-58
2021/06/16 01:48:13;;;;;;;9.65;2.78;;;;;;;17.81;57.47;101353.53;5093440;28;20051;-61
2021/06/16 01:50:42;;;;;;;7.37;2.07;;;;;;;17.71;57.72;101351.28;5091463;28;20071;-58
2021/06/16 01:53:10;;;;;;;10.98;2.72;;;;;;;17.68;57.95;101351.38;5094487;28;20074;-59
2021/06/16 01:55:36;;;;;;;11.30;3.22;;;;;;;17.66;57.98;101350.56;5088561;28;20377;-61
2021/06/16 01:58:04;;;;;;;10.32;1.88;;;;;;;17.67;58.06;101352.28;5092368;28;20047;-63
2021/06/16 02:00:31;;;;;;;12.77;2.90;;;;;;;17.67;58.25;101346.16;5097186;28;20101;-62
2021/06/16 02:03:00;;;;;;;9.63;2.38;;;;;;;17.70;58.14;101343.41;5093654;28;20048;-62
2021/06/16 02:05:27;;;;;;;13.20;3.10;;;;;;;17.70;58.23;101341.66;5090554;28;20055;-61
2021/06/16 02:07:57;;;;;;;9.52;2.40;;;;;;;17.71;58.30;101343.38;5092324;28;20047;-59
2021/06/16 02:10:28;;;;;;;11.85;2.65;;;;;;;17.74;58.40;101347.66;5092836;28;20051;-61
2021/06/16 02:12:57;;;;;;;13.73;2.78;;;;;;;17.79;58.30;101339.56;5100427;28;20055;-62
2021/06/16 02:15:28;;;;;;;8.68;2.85;;;;;;;17.81;58.26;101343.00;5091640;28;20047;-62
2021/06/16 02:17:56;;;;;;;7.05;2.38;;;;;;;17.78;58.41;101343.13;5091168;28;20123;-60
2021/06/16 02:20:24;;;;;;;9.82;2.33;;;;;;;17.72;58.42;101329.28;5094066;28;20464;-62
2021/06/16 02:22:51;;;;;;;12.88;2.47;;;;;;;17.72;58.74;101331.06;5091740;28;20039;-62
2021/06/16 02:25:19;;;;;;;11.68;2.30;;;;;;;17.72;58.68;101329.28;5096024;28;20052;-61
2021/06/16 02:27:46;;;;;;;10.10;2.58;;;;;;;17.68;58.90;101327.69;5092970;28;20427;-61
2021/06/16 02:30:14;;;;;;;10.50;3.15;;;;;;;17.71;58.93;101326.72;5091376;28;20055;-61
2021/06/16 02:32:40;;;;;;;17.00;3.63;;;;;;;17.64;59.02;101326.09;5096752;28;20075;-62
2021/06/16 02:35:08;;;;;;;9.98;2.55;;;;;;;17.63;59.10;101323.53;5091179;28;20036;-63
2021/06/16 02:37:39;;;;;;;11.18;2.78;;;;;;;17.58;59.27;101322.84;5091672;28;20043;-61
2021/06/16 02:40:11;;;;;;;12.93;2.83;;;;;;;17.58;59.33;101321.09;5091259;28;20516;-62
2021/06/16 02:42:39;;;;;;;12.40;2.88;;;;;;;17.61;59.59;101318.34;5093411;28;20086;-61
2021/06/16 02:45:07;;;;;;;9.80;3.10;;;;;;;17.63;59.57;101313.84;5095323;28;20408;-61
2021/06/16 02:47:38;;;;;;;8.90;2.58;;;;;;;17.65;59.69;101312.03;5089360;28;20040;-61
2021/06/16 02:50:06;;;;;;;12.20;2.80;;;;;;;17.68;59.95;101311.91;5084819;28;20500;-61
2021/06/16 02:52:36;;;;;;;10.65;2.70;;;;;;;17.68;60.01;101305.78;5085574;28;20505;-61
2021/06/16 02:55:06;;;;;;;8.60;3.25;;;;;;;17.67;60.04;101309.31;5092814;28;20051;-62
2021/06/16 02:57:35;;;;;;;10.55;3.15;;;;;;;17.66;60.17;101302.38;5093280;28;20047;-62
2021/06/16 03:00:07;;;;;;;10.18;2.60;;;;;;;17.61;60.03;101310.44;5090910;28;20040;-60
2021/06/16 03:02:34;;;;;;;10.05;3.50;;;;;;;17.55;60.41;101308.91;5091044;28;20048;-61
2021/06/16 03:05:02;;;;;;;12.07;2.85;;;;;;;17.52;60.33;101300.25;5091023;28;20048;-60
2021/06/16 03:07:29;;;;;;;8.60;2.60;;;;;;;17.42;60.45;101298.94;5093604;28;20044;-62
2021/06/16 03:09:59;;;;;;;12.43;2.85;;;;;;;17.29;60.92;101298.53;5092412;28;20048;-61
2021/06/16 03:12:28;;;;;;;11.65;3.17;;;;;;;17.22;61.25;101303.16;5087865;28;20044;-61
2021/06/16 03:14:55;;;;;;;10.25;3.30;;;;;;;17.12;61.34;101299.22;5089636;28;20044;-59
2021/06/16 03:17:22;;;;;;;9.80;3.03;;;;;;;17.06;61.64;101298.50;5094486;28;20066;-62
2021/06/16 03:19:49;;;;;;;13.27;2.85;;;;;;;17.07;61.68;101302.84;5090559;28;20044;-60
2021/06/16 03:22:17;;;;;;;14.07;2.95;;;;;;;17.04;61.89;101300.31;5101677;28;20074;-61
2021/06/16 03:24:45;;;;;;;12.18;2.92;;;;;;;17.01;62.23;101297.84;5086719;28;20068;-60
2021/06/16 03:27:12;;;;;;;12.35;3.03;;;;;;;17.01;62.09;101299.59;5091178;28;20062;-58
2021/06/16 03:29:41;;;;;;;11.40;2.80;;;;;;;16.98;62.35;101295.31;5091751;28;20074;-59
2021/06/16 03:32:09;;;;;;;10.75;3.13;;;;;;;16.92;62.48;101295.47;5094066;28;20052;-61
2021/06/16 03:34:36;;;;;;;7.15;2.63;;;;;;;16.90;62.71;101300.81;5092037;28;20063;-61
2021/06/16 03:37:05;;;;;;;16.67;3.75;;;;;;;16.89;62.83;101298.25;5091794;28;20044;-60
2021/06/16 03:39:33;;;;;;;8.45;2.70;;;;;;;16.90;63.19;101292.94;5091039;28;20040;-60
2021/06/16 03:42:00;;;;;;;11.43;2.65;;;;;;;16.92;63.45;101296.34;5091444;28;20408;-62
2021/06/16 03:44:27;;;;;;;12.20;3.10;;;;;;;16.95;63.48;101300.66;5091645;28;20050;-59
2021/06/16 03:46:55;;;;;;;11.02;2.90;;;;;;;17.04;63.55;101296.84;5091087;28;20052;-60
2021/06/16 03:49:24;;;;;;;10.40;3.45;;;;;;;17.15;63.42;101299.06;5088261;28;20041;-60
2021/06/16 03:51:51;;;;;;;11.45;3.17;;;;;;;17.15;63.13;101288.56;5096481;28;20386;-60
2021/06/16 03:54:20;;;;;;;10.05;2.92;;;;;;;17.24;62.85;101283.81;5101526;28;20047;-59
2021/06/16 03:56:48;;;;;;;15.13;4.10;;;;;;;17.28;62.97;101289.81;5090967;28;20436;-58
2021/06/16 03:59:15;;;;;;;13.13;3.40;;;;;;;17.40;62.78;101291.09;5092802;28;20047;-61
2021/06/16 04:01:42;;;;;;;13.05;3.45;;;;;;;17.50;62.38;101289.81;5086427;28;20048;-60
2021/06/16 04:04:12;;;;;;;9.43;3.45;;;;;;;17.59;62.15;101279.84;5087259;28;20394;-61
2021/06/16 04:06:42;;;;;;;17.90;3.65;;;;;;;17.65;62.05;101280.47;5078100;28;20044;-59
2021/06/16 04:09:11;;;;;;;18.25;4.45;;;;;;;17.68;61.77;101271.56;5087066;28;20052;-62
2021/06/16 04:11:37;;;;;;;13.30;4.15;;;;;;;17.64;61.63;101270.84;5079347;28;20109;-59
2021/06/16 04:14:04;;;;;;;14.82;4.32;;;;;;;17.62;61.75;101264.78;5083897;28;20059;-60
2021/06/16 04:16:31;;;;;;;11.05;4.38;;;;;;;17.71;61.66;101269.72;5089027;28;20047;-61
2021/06/16 04:18:58;;;;;;;15.68;4.18;;;;;;;17.77;61.29;101267.72;5086346;28;20051;-61
2021/06/16 04:21:26;;;;;;;18.88;4.60;;;;;;;17.81;61.40;101270.16;5086415;28;20051;-59
2021/06/16 04:23:53;;;;;;;16.95;5.10;;;;;;;17.82;61.22;101265.75;5087631;28;20398;-60
2021/06/16 04:26:21;;;;;;;15.65;4.32;;;;;;;17.87;61.04;101261.16;5086257;28;20040;-60
2021/06/16 04:28:48;;;;;;;14.68;4.55;;;;;;;17.91;61.15;101267.16;5089659;28;20047;-59
2021/06/16 04:31:15;;;;;;;15.35;5.63;;;;;;;17.98;60.99;101268.63;5087810;28;20098;-62
2021/06/16 04:33:42;;;;;;;9.88;4.28;;;;;;;18.18;60.57;101260.75;5084599;28;20040;-59
2021/06/16 04:36:08;;;;;;;13.80;5.00;;;;;;;18.38;59.93;101261.66;5091705;28;20051;-61
2021/06/16 04:38:37;;;;;;;13.50;4.03;;;;;;;18.54;59.34;101261.00;5092290;28;20051;-62
2021/06/16 04:41:04;;;;;;;12.35;4.32;;;;;;;18.59;59.24;101259.88;5092080;28;20442;-61
2021/06/16 04:43:30;;;;;;;13.68;3.65;;;;;;;18.81;58.99;101264.19;5086596;28;20056;-62
2021/06/16 04:45:57;;;;;;;15.65;3.78;;;;;;;19.04;58.38;101262.28;5091038;28;20055;-61
2021/06/16 04:48:23;;;;;;;12.55;3.75;;;;;;;19.24;57.13;101258.72;5087602;28;20055;-61
2021/06/16 04:50:50;;;;;;;16.15;4.63;;;;;;;19.29;56.84;101250.59;5084122;28;20044;-59
2021/06/16 04:53:16;;;;;;;9.70;4.07;;;;;;;19.51;56.76;101245.13;5090463;28;20050;-59
2021/06/16 04:55:44;;;;;;;13.43;4.70;;;;;;;19.67;55.80;101246.06;5093800;28;20063;-61
2021/06/16 04:58:10;;;;;;;13.13;4.97;;;;;;;19.76;55.60;101242.13;5095690;28;20048;-60
2021/06/16 05:00:37;;;;;;;17.30;4.93;;;;;;;19.83;55.49;101238.25;5089148;28;20067;-57
2021/06/16 05:03:03;;;;;;;18.35;5.10;;;;;;;19.83;55.24;101240.03;5093038;28;20185;-60
2021/06/16 05:05:30;;;;;;;13.15;3.63;;;;;;;19.92;55.46;101236.97;5090916;28;20741;-62
2021/06/16 05:07:56;;;;;;;19.17;5.32;;;;;;;19.99;55.29;101237.53;5094339;28;20056;-61
2021/06/16 05:10:23;;;;;;;14.50;6.10;;;;;;;20.08;55.41;101233.53;5087971;28;20048;-60
2021/06/16 05:12:51;;;;;;;19.15;5.07;;;;;;;20.19;55.47;101226.78;5084371;28;20077;-63
2021/06/16 05:15:18;;;;;;;15.13;5.25;;;;;;;20.36;55.25;101232.97;5096180;28;20048;-61
2021/06/16 05:17:45;;;;;;;20.77;5.72;;;;;;;20.45;54.89;101237.75;5093174;28;20509;-62
2021/06/16 05:20:14;;;;;;;16.50;5.07;;;;;;;20.60;54.46;101240.53;5089563;28;20520;-60
2021/06/16 05:22:41;;;;;;;17.55;5.28;;;;;;;20.72;53.88;101237.22;5088862;28;20048;-61
2021/06/16 05:25:10;;;;;;;15.35;5.03;;;;;;;20.86;54.06;101235.66;5087701;28;20044;-61
2021/06/16 05:27:37;;;;;;;19.80;5.25;;;;;;;21.15;53.19;101233.19;5089478;28;20048;-62
2021/06/16 05:30:07;;;;;;;14.30;5.13;;;;;;;21.22;53.15;101237.16;5089193;28;20040;-59
2021/06/16 05:32:33;;;;;;;17.58;5.35;;;;;;;21.38;52.81;101227.44;5092529;28;20040;-58
2021/06/16 05:35:00;;;;;;;22.52;4.80;;;;;;;21.49;52.32;101233.91;5093260;28;20040;-60
2021/06/16 05:37:26;;;;;;;22.58;5.53;;;;;;;21.59;52.35;101221.91;5098865;28;20047;-61
2021/06/16 05:39:52;;;;;;;17.40;5.53;;;;;;;21.52;52.05;101223.13;5095086;28;20476;-61
2021/06/16 05:42:19;;;;;;;17.17;5.28;;;;;;;21.46;52.21;101213.75;5094609;28;20051;-62
2021/06/16 05:44:46;;;;;;;18.63;6.05;;;;;;;21.41;52.44;101216.66;5095573;28;20051;-62
2021/06/16 05:47:13;;;;;;;17.38;5.07;;;;;;;21.42;52.69;101207.78;5091979;28;20493;-62
2021/06/16 05:49:40;;;;;;;20.40;6.00;;;;;;;21.59;53.02;101216.59;5083780;28;20051;-62
2021/06/16 05:52:07;;;;;;;30.33;6.93;;;;;;;21.71;53.07;101213.22;5093477;28;20048;-61
2021/06/16 05:54:37;;;;;;;16.60;6.00;;;;;;;21.84;53.13;101208.06;5096458;28;20050;-62
2021/06/16 05:57:03;;;;;;;19.10;6.18;;;;;;;22.01;52.25;101207.03;5095649;28;20063;-62
2021/06/16 05:59:30;;;;;;;16.30;5.30;;;;;;;22.01;52.59;101208.84;5090875;28;20424;-60
2021/06/16 06:01:56;;;;;;;13.65;4.97;;;;;;;22.08;52.55;101204.03;5096842;28;20044;-62
2021/06/16 06:04:24;;;;;;;24.23;5.70;;;;;;;22.30;51.32;101204.44;5092396;28;20043;-62
2021/06/16 06:06:51;;;;;;;23.05;6.65;;;;;;;22.56;50.83;101209.94;5091521;28;20051;-61
2021/06/16 06:09:17;;;;;;;13.20;5.25;;;;;;;22.85;50.63;101207.25;5092723;28;20036;-62
2021/06/16 06:11:43;;;;;;;16.83;5.15;;;;;;;23.04;49.60;101206.06;5093688;28;20679;-62
2021/06/16 06:14:10;;;;;;;15.80;4.10;;;;;;;23.14;48.67;101205.38;5091865;28;20052;-59
2021/06/16 06:16:36;;;;;;;17.52;5.80;;;;;;;23.14;48.32;101205.38;5088789;28;20052;-60
2021/06/16 06:19:03;;;;;;;13.23;3.92;;;;;;;23.22;48.14;101202.22;5085607;28;20109;-59
2021/06/16 06:21:32;;;;;;;15.80;4.47;;;;;;;23.25;47.96;101195.91;5090315;28;20056;-59
2021/06/16 06:23:58;;;;;;;22.40;5.85;;;;;;;23.57;47.08;101207.03;5090838;28;20048;-61
2021/06/16 06:26:25;;;;;;;17.23;4.43;;;;;;;23.78;46.43;101200.34;5091984;28;20113;-61
2021/06/16 06:28:51;;;;;;;17.75;4.55;;;;;;;24.04;45.66;101190.63;5091852;28;20217;-58
2021/06/16 06:31:18;;;;;;;14.15;4.65;;;;;;;24.05;44.48;101201.19;5091651;28;20048;-59
2021/06/16 06:33:44;;;;;;;14.63;4.93;;;;;;;24.20;45.22;101201.06;5097001;28;20070;-61
2021/06/16 06:36:10;;;;;;;14.48;4.80;;;;;;;24.19;44.99;101189.59;5094325;28;20044;-58
2021/06/16 06:38:38;;;;;;;16.15;4.75;;;;;;;24.34;45.32;101192.13;5088524;28;20471;-61
2021/06/16 06:41:05;;;;;;;19.58;4.88;;;;;;;24.21;44.72;101190.31;5084205;28;20044;-60
2021/06/16 06:43:31;;;;;;;14.55;6.25;;;;;;;24.39;45.59;101187.34;5089970;28;20048;-60
2021/06/16 06:45:58;;;;;;;16.55;5.28;;;;;;;24.69;45.34;101180.81;5092523;28;20521;-58
2021/06/16 06:48:24;;;;;;;22.45;7.10;;;;;;;24.77;44.86;101174.91;5095491;28;20055;-60
2021/06/16 06:50:51;;;;;;;21.35;5.68;;;;;;;24.71;45.26;101176.22;5089791;28;20070;-62
2021/06/16 06:53:17;;;;;;;22.63;5.82;;;;;;;24.71;45.71;101178.88;5090902;28;20071;-60
2021/06/16 06:55:45;;;;;;;17.48;5.50;;;;;;;24.58;45.33;101170.06;5094390;28;20464;-60
2021/06/16 06:58:12;;;;;;;20.20;5.72;;;;;;;24.64;45.25;101170.47;5090969;28;20093;-60
2021/06/16 07:00:38;;;;;;;17.17;5.88;;;;;;;24.60;45.45;101170.81;5091896;28;20040;-60
2021/06/16 07:03:05;;;;;;;21.20;5.55;;;;;;;24.63;45.68;101162.59;5091640;28;20039;-60
2021/06/16 07:05:31;;;;;;;26.38;6.22;;;;;;;24.71;45.73;101162.06;5091381;28;20051;-61
2021/06/16 07:07:58;;;;;;;17.58;4.95;;;;;;;24.84;45.88;101162.88;5093361;28;20130;-58
2021/06/16 07:10:24;;;;;;;14.18;5.32;;;;;;;24.93;43.65;101159.56;5093113;28;20705;-57
2021/06/16 07:12:52;;;;;;;16.85;4.53;;;;;;;25.04;43.55;101152.59;5091410;28;20040;-60
2021/06/16 07:15:19;;;;;;;19.10;5.43;;;;;;;24.83;44.03;101151.38;5090008;28;20048;-59
2021/06/16 07:17:45;;;;;;;17.88;5.43;;;;;;;24.68;43.48;101150.69;5089060;28;20052;-60
2021/06/16 07:20:16;;;;;;;15.55;4.38;;;;;;;24.59;43.56;101155.81;5086831;28;20046;-60
2021/06/16 07:22:42;;;;;;;14.63;4.70;;;;;;;24.79;42.94;101149.06;5090897;28;20090;-59
2021/06/16 07:25:10;;;;;;;11.30;4.15;;;;;;;24.80;41.90;101135.66;5087214;28;20048;-60
2021/06/16 07:27:36;;;;;;;11.05;4.85;;;;;;;24.80;42.55;101138.31;5086192;28;20044;-60
2021/06/16 07:30:05;;;;;;;13.93;3.97;;;;;;;24.97;41.69;101131.72;5087658;28;20047;-61
2021/06/16 07:32:32;;;;;;;15.43;4.20;;;;;;;25.02;41.76;101123.41;5090627;28;20040;-60
2021/06/16 07:34:59;;;;;;;13.07;3.58;;;;;;;25.15;41.77;101123.38;5090403;28;20055;-62
2021/06/16 07:37:26;;;;;;;10.60;3.10;;;;;;;25.14;40.83;101121.66;5079119;28;20044;-60
2021/06/16 07:39:53;;;;;;;11.85;3.58;;;;;;;24.99;40.81;101115.66;5086688;28;20077;-59
2021/06/16 07:42:20;;;;;;;8.65;2.60;;;;;;;25.01;41.50;101116.38;5090706;28;20047;-61
2021/06/16 07:44:46;;;;;;;9.93;2.78;;;;;;;24.96;40.75;101119.38;5087682;28;20052;-60
2021/06/16 07:47:14;;;;;;;11.45;2.88;;;;;;;24.78;40.79;101115.44;5081081;28;20044;-59
2021/06/16 07:49:40;;;;;;;10.38;3.00;;;;;;;24.81;41.20;101102.75;5088481;28;20048;-58
2021/06/16 07:52:07;;;;;;;13.73;3.20;;;;;;;25.05;41.23;101117.03;5090547;28;20050;-60
2021/06/16 07:54:34;;;;;;;11.13;3.25;;;;;;;24.88;40.47;101107.63;5086614;28;20468;-61
2021/06/16 07:57:01;;;;;;;10.82;3.13;;;;;;;24.58;41.23;101101.75;5087037;28;20047;-60
2021/06/16 07:59:27;;;;;;;14.52;3.10;;;;;;;24.68;41.54;101104.63;5088846;28;20044;-59
2021/06/16 08:01:54;;;;;;;12.27;3.47;;;;;;;24.80;42.00;101105.53;5088869;28;20421;-58
2021/06/16 08:04:23;;;;;;;11.85;3.42;;;;;;;24.80;41.63;101094.88;5090011;28;20059;-60
2021/06/16 08:06:50;;;;;;;13.40;2.92;;;;;;;24.95;41.60;101096.44;5086391;28;20142;-60
2021/06/16 08:09:17;;;;;;;16.55;3.60;;;;;;;24.95;41.69;101104.41;5082259;28;20040;-60
2021/06/16 08:11:43;;;;;;;9.75;3.15;;;;;;;25.10;41.51;101091.75;5089502;28;20506;-60
2021/06/16 08:14:09;;;;;;;10.70;3.00;;;;;;;25.19;40.85;101084.88;5086279;28;20045;-60
2021/06/16 08:16:36;;;;;;;7.65;3.10;;;;;;;25.26;43.06;101090.59;5081367;28;20048;-62
2021/06/16 08:19:03;;;;;;;9.50;3.38;;;;;;;25.43;42.07;101089.34;5082478;28;20041;-62
2021/06/16 08:21:31;;;;;;;11.32;4.72;;;;;;;25.53;41.93;101092.13;5090353;28;20093;-62
2021/06/16 08:23:58;;;;;;;10.18;3.33;;;;;;;25.52;42.05;101085.09;5095872;28;20055;-59
2021/06/16 08:26:24;;;;;;;11.98;3.55;;;;;;;25.55;42.74;101090.19;5086934;28;20056;-61
2021/06/16 08:28:51;;;;;;;12.38;3.50;;;;;;;25.56;41.92;101090.06;5087487;28;20737;-60
2021/06/16 08:31:17;;;;;;;15.13;4.65;;;;;;;25.65;41.75;101093.84;5090239;28;20433;-57
2021/06/16 08:33:44;;;;;;;9.60;3.65;;;;;;;25.72;41.87;101086.22;5085946;28;20047;-60
2021/06/16 08:36:10;;;;;;;13.52;3.60;;;;;;;25.89;42.23;101079.59;5090245;28;20044;-61
2021/06/16 08:38:38;;;;;;;11.18;3.92;;;;;;;26.04;42.52;101086.34;5080496;28;20448;-62
2021/06/16 08:41:07;;;;;;;12.82;4.80;;;;;;;26.20;42.16;101082.50;5086267;28;20647;-60
2021/06/16 08:43:38;;;;;;;18.83;4.63;;;;;;;26.19;42.08;101078.13;5085123;28;20044;-61
2021/06/16 08:46:07;;;;;;;15.90;4.57;;;;;;;26.32;41.60;101078.00;5087733;28;20101;-62
2021/06/16 08:48:35;;;;;;;12.98;3.75;;;;;;;26.44;42.02;101081.47;5088553;28;20532;-62
2021/06/16 08:51:02;;;;;;;13.32;4.18;;;;;;;26.61;41.28;101078.25;5083239;28;20040;-61
2021/06/16 08:53:29;;;;;;;11.70;3.65;;;;;;;26.73;41.02;101075.56;5085641;28;20055;-58
2021/06/16 08:55:57;;;;;;;9.32;3.22;;;;;;;26.79;41.04;101067.94;5082781;28;20425;-61
2021/06/16 08:58:24;;;;;;;13.55;3.33;;;;;;;26.72;40.93;101071.19;5087324;28;20070;-60
2021/06/16 09:00:51;;;;;;;12.88;3.70;;;;;;;26.59;41.03;101072.22;5085682;28;20089;-59
2021/06/16 09:03:17;;;;;;;12.80;3.42;;;;;;;26.53;40.70;101075.38;5087844;28;20059;-56
2021/06/16 09:05:44;;;;;;;13.73;3.72;;;;;;;26.53;41.47;101064.72;5087504;28;20040;-62
2021/06/16 09:08:18;;;;;;;8.65;3.55;;;;;;;26.77;41.85;101056.53;5089934;28;20044;-61
2021/06/16 09:10:46;;;;;;;11.18;3.30;;;;;;;27.11;40.72;101056.38;5082884;28;20044;-60
2021/06/16 09:13:25;;;;;;;10.40;4.07;;;;;;;27.07;41.66;101062.94;5082335;28;20051;-60
2021/06/16 09:15:52;;;;;;;11.60;3.53;;;;;;;26.99;41.37;101060.06;5086459;28;20131;-60
2021/06/16 09:18:18;;;;;;;10.88;4.15;;;;;;;26.90;41.42;101061.69;5090063;28;20048;-62
2021/06/16 09:20:47;;;;;;;10.07;3.65;;;;;;;26.64;41.81;101062.00;5085570;28;20463;-61
2021/06/16 09:23:16;;;;;;;12.32;4.43;;;;;;;26.38;42.10;101057.00;5081778;28;20055;-62
2021/06/16 09:25:44;;;;;;;9.32;4.10;;;;;;;26.34;42.68;101060.06;5086660;28;20062;-60
2021/06/16 09:28:11;;;;;;;11.45;4.30;;;;;;;26.28;42.95;101056.06;5087851;28;20048;-62
2021/06/16 09:30:43;;;;;;;16.20;5.55;;;;;;;26.38;42.92;101054.34;5088501;28;20043;-62
2021/06/16 09:33:15;;;;;;;13.07;4.40;;;;;;;26.44;43.50;101046.78;5088351;28;20048;-61
2021/06/16 09:35:44;;;;;;;16.50;5.00;;;;;;;26.44;42.49;101050.31;5084348;28;20045;-59
2021/06/16 09:38:14;;;;;;;11.35;4.70;;;;;;;26.62;42.98;101053.28;5083883;28;20051;-62
2021/06/16 09:40:44;;;;;;;11.45;4.57;;;;;;;26.67;43.15;101042.22;5086661;28;20572;-59
2021/06/16 09:43:12;;;;;;;11.07;4.47;;;;;;;26.62;43.12;101042.59;5086655;28;20436;-61
2021/06/16 09:45:43;;;;;;;11.27;4.20;;;;;;;26.80;43.07;101034.94;5085218;28;20044;-60
2021/06/16 09:48:24;;;;;;;9.15;3.97;;;;;;;27.04;42.17;101030.31;5087557;28;20063;-61
2021/06/16 09:50:52;;;;;;;10.98;4.60;;;;;;;27.21;42.39;101032.38;5087294;28;20044;-60
2021/06/16 09:53:19;;;;;;;10.90;3.85;;;;;;;27.28;41.59;101027.38;5088057;28;20048;-60
2021/06/16 09:55:46;;;;;;;11.35;3.90;;;;;;;27.35;42.13;101022.34;5089337;28;20044;-62
2021/06/16 09:58:16;;;;;;;9.77;4.45;;;;;;;27.54;42.21;101021.66;5079853;28;20051;-62
2021/06/16 10:00:49;;;;;;;15.57;4.72;;;;;;;27.65;42.02;101026.88;5086722;28;20048;-61
2021/06/16 10:03:17;;;;;;;16.55;4.57;;;;;;;27.59;41.17;101024.75;5087373;28;20058;-61
2021/06/16 10:06:07;;;;;;;11.80;4.03;;;;;;;27.57;41.96;101022.22;5087872;28;20052;-62
2021/06/16 10:08:35;;;;;;;8.38;4.07;;;;;;;27.71;41.86;101017.47;5096447;28;20058;-60
2021/06/16 10:11:02;;;;;;;9.80;4.00;;;;;;;27.77;42.86;101011.63;5092101;28;20104;-60
2021/06/16 10:13:30;;;;;;;11.20;4.25;;;;;;;27.93;41.85;101022.63;5092104;28;20050;-58
2021/06/16 10:15:59;;;;;;;16.00;5.57;;;;;;;27.95;41.89;101016.31;5092518;28;20097;-60
2021/06/16 10:18:27;;;;;;;7.57;4.25;;;;;;;27.81;41.08;101010.34;5094856;28;20063;-61
2021/06/16 10:20:54;;;;;;;10.15;4.38;;;;;;;27.93;42.01;101011.94;5092147;28;20048;-60
2021/06/16 10:23:21;;;;;;;10.60;4.28;;;;;;;28.04;41.71;101012.81;5089895;28;20044;-62
2021/06/16 10:25:49;;;;;;;8.85;4.65;;;;;;;27.92;41.21;101006.72;5095043;28;20075;-60
2021/06/16 10:28:19;;;;;;;10.68;4.38;;;;;;;27.92;41.94;101007.56;5091233;28;20057;-61
2021/06/16 10:30:52;;;;;;;8.82;4.28;;;;;;;28.23;41.36;101002.16;5096191;28;20055;-61
2021/06/16 10:33:33;;;;;;;7.70;4.20;;;;;;;28.37;41.67;101005.44;5089486;28;20516;-62
2021/06/16 10:36:07;;;;;;;9.88;4.78;;;;;;;28.60;40.34;101005.16;5096460;28;20058;-61
2021/06/16 10:38:34;;;;;;;11.48;5.20;;;;;;;28.65;40.92;101005.56;5091519;28;20044;-62
2021/06/16 10:41:01;;;;;;;9.65;4.88;;;;;;;28.76;40.22;100997.44;5090282;28;20079;-62
2021/06/16 10:43:32;;;;;;;14.00;4.75;;;;;;;28.94;40.08;101000.22;5091692;28;20052;-62
2021/06/16 10:46:01;;;;;;;9.32;4.88;;;;;;;29.14;40.14;100997.50;5087898;28;20130;-62
2021/06/16 10:48:51;;;;;;;10.13;5.50;;;;;;;29.32;39.93;101000.25;5123754;22;20138;-65
2021/06/16 10:51:32;;;;;;;13.27;5.03;;;;;;;29.24;40.87;100997.47;5104401;27;20123;-66
2021/06/16 10:54:30;;;;;;;12.32;5.53;;;;;;;29.46;39.98;101002.50;5102723;28;20540;-68
2021/06/16 10:56:59;;;;;;;11.95;5.88;;;;;;;29.55;39.86;101000.75;5108948;28;20086;-67
2021/06/16 11:00:03;;;;;;;15.05;6.03;;;;;;;29.53;39.48;100994.72;5103763;28;20047;-68
2021/06/16 11:03:04;;;;;;;12.57;6.80;;;;;;;29.45;40.07;100990.09;5101085;28;20054;-68
2021/06/16 11:05:38;;;;;;;13.63;6.18;;;;;;;29.37;40.48;100992.66;5103735;27;20062;-68
2021/06/16 11:08:05;;;;;;;12.73;6.30;;;;;;;29.29;40.07;100984.50;5110745;27;20051;-67
2021/06/16 11:10:52;;;;;;;10.35;6.47;;;;;;;29.38;39.47;100990.81;5105170;27;20113;-66
2021/06/16 11:13:39;;;;;;;11.45;5.45;;;;;;;29.37;40.17;100979.28;5104751;28;20044;-67
2021/06/16 11:16:54;;;;;;;11.95;5.47;;;;;;;29.43;40.61;100981.34;5106611;27;20047;-67
2021/06/16 11:19:26;;;;;;;14.63;5.90;;;;;;;29.54;40.29;100974.97;5104141;27;20083;-67
2021/06/16 11:21:57;;;;;;;13.00;7.00;;;;;;;29.65;39.90;100965.88;5102648;27;20067;-66
2021/06/16 11:25:02;;;;;;;15.63;6.60;;;;;;;29.44;40.47;100969.63;5105858;28;20051;-68
2021/06/16 11:27:54;;;;;;;16.35;6.50;;;;;;;29.35;40.17;100965.16;5104652;27;20052;-66